sensor_id;sensor_type;location;lat;lon;timestamp;pressure;altitude;pressure_sealevel;temperature;humidity
29379;BME280;16362;47.202;15.258;2023-09-19T00:02:34;95687.97;;;17.10;100.00
29379;BME280;16362;47.202;15.258;2023-09-19T00:08:58;95693.56;;;17.09;100.00
29379;BME280;16362;47.202;15.258;2023-09-19T00:20:38;95711.47;;;17.03;100.00
29379;BME280;16362;47.202;15.258;2023-09-19T00:27:04;95712.50;;;16.90;100.00
29379;BME280;16362;47.202;15.258;2023-09-19T00:33:51;95710.38;;;16.92;100.00
29379;BME280;16362;47.202;15.258;2023-09-19T00:40:26;95700.88;;;16.90;100.00
29379;BME280;16362;47.202;15.258;2023-09-19T00:47:27;95697.13;;;16.72;100.00
29379;BME280;16362;47.202;15.258;2023-09-19T00:54:09;95709.56;;;16.73;100.00
29379;BME280;16362;47.202;15.258;2023-09-19T01:00:35;95704.88;;;16.69;100.00
29379;BME280;16362;47.202;15.258;2023-09-19T01:07:00;95704.34;;;16.60;100.00
29379;BME280;16362;47.202;15.258;2023-09-19T01:13:34;95708.44;;;16.62;100.00
29379;BME280;16362;47.202;15.258;2023-09-19T01:20:36;95722.75;;;16.63;100.00
29379;BME280;16362;47.202;15.258;2023-09-19T01:33:56;95718.56;;;16.48;100.00
29379;BME280;16362;47.202;15.258;2023-09-19T01:40:22;95729.13;;;16.50;100.00
29379;BME280;16362;47.202;15.258;2023-09-19T01:46:34;95721.56;;;16.40;100.00
29379;BME280;16362;47.202;15.258;2023-09-19T01:53:02;95724.59;;;16.44;100.00
29379;BME280;16362;47.202;15.258;2023-09-19T01:59:28;95726.25;;;16.45;100.00
29379;BME280;16362;47.202;15.258;2023-09-19T02:05:52;95727.59;;;16.36;100.00
29379;BME280;16362;47.202;15.258;2023-09-19T02:12:15;95719.53;;;16.36;100.00
29379;BME280;16362;47.202;15.258;2023-09-19T02:23:21;95744.66;;;16.29;100.00
29379;BME280;16362;47.202;15.258;2023-09-19T02:29:42;95763.13;;;16.26;100.00
29379;BME280;16362;47.202;15.258;2023-09-19T02:36:03;95755.84;;;16.08;100.00
29379;BME280;16362;47.202;15.258;2023-09-19T02:42:24;95764.81;;;16.02;100.00
29379;BME280;16362;47.202;15.258;2023-09-19T02:48:52;95780.66;;;15.91;100.00
29379;BME280;16362;47.202;15.258;2023-09-19T02:55:18;95780.50;;;15.79;100.00
29379;BME280;16362;47.202;15.258;2023-09-19T03:01:39;95788.78;;;15.78;100.00
29379;BME280;16362;47.202;15.258;2023-09-19T03:08:01;95796.88;;;15.78;100.00
29379;BME280;16362;47.202;15.258;2023-09-19T03:14:27;95798.13;;;15.75;100.00
29379;BME280;16362;47.202;15.258;2023-09-19T03:26:06;95796.16;;;15.57;100.00
29379;BME280;16362;47.202;15.258;2023-09-19T03:32:32;95799.88;;;15.63;100.00
29379;BME280;16362;47.202;15.258;2023-09-19T03:39:16;95805.97;;;15.45;100.00
29379;BME280;16362;47.202;15.258;2023-09-19T03:46:21;95811.34;;;15.45;100.00
29379;BME280;16362;47.202;15.258;2023-09-19T03:53:02;95816.50;;;15.46;100.00
29379;BME280;16362;47.202;15.258;2023-09-19T03:59:47;95820.47;;;15.44;100.00
29379;BME280;16362;47.202;15.258;2023-09-19T04:06:21;95812.81;;;15.41;100.00
29379;BME280;16362;47.202;15.258;2023-09-19T04:13:06;95811.34;;;15.45;100.00
29379;BME280;16362;47.202;15.258;2023-09-19T04:19:28;95829.16;;;15.39;100.00
29379;BME280;16362;47.202;15.258;2023-09-19T04:26:20;95839.72;;;15.34;100.00
29379;BME280;16362;47.202;15.258;2023-09-19T04:32:47;95848.66;;;15.35;100.00
29379;BME280;16362;47.202;15.258;2023-09-19T04:39:12;95863.94;;;15.34;100.00
29379;BME280;16362;47.202;15.258;2023-09-19T04:45:40;95857.97;;;15.32;100.00
29379;BME280;16362;47.202;15.258;2023-09-19T04:52:08;95853.66;;;15.24;100.00
29379;BME280;16362;47.202;15.258;2023-09-19T04:58:48;95853.91;;;15.09;100.00
29379;BME280;16362;47.202;15.258;2023-09-19T05:05:15;95861.53;;;15.12;100.00
29379;BME280;16362;47.202;15.258;2023-09-19T05:11:38;95883.88;;;15.13;100.00
29379;BME280;16362;47.202;15.258;2023-09-19T05:18:04;95893.41;;;15.15;100.00
29379;BME280;16362;47.202;15.258;2023-09-19T05:25:00;95897.91;;;15.15;100.00
29379;BME280;16362;47.202;15.258;2023-09-19T05:31:26;95898.31;;;15.25;100.00
29379;BME280;16362;47.202;15.258;2023-09-19T05:37:56;95904.91;;;15.29;100.00
29379;BME280;16362;47.202;15.258;2023-09-19T05:44:34;95890.78;;;15.41;100.00
29379;BME280;16362;47.202;15.258;2023-09-19T05:51:01;95901.91;;;15.51;100.00
29379;BME280;16362;47.202;15.258;2023-09-19T05:57:27;95902.59;;;15.40;100.00
29379;BME280;16362;47.202;15.258;2023-09-19T06:03:54;95917.81;;;15.59;100.00
29379;BME280;16362;47.202;15.258;2023-09-19T06:10:22;95925.38;;;15.76;100.00
29379;BME280;16362;47.202;15.258;2023-09-19T06:16:43;95929.06;;;15.88;100.00
29379;BME280;16362;47.202;15.258;2023-09-19T06:27:52;95933.34;;;15.96;100.00
29379;BME280;16362;47.202;15.258;2023-09-19T06:34:13;95938.69;;;16.03;100.00
29379;BME280;16362;47.202;15.258;2023-09-19T06:40:36;95949.91;;;15.99;100.00
29379;BME280;16362;47.202;15.258;2023-09-19T06:46:57;95961.88;;;16.04;100.00
29379;BME280;16362;47.202;15.258;2023-09-19T09:12:27;96061.97;;;21.55;100.00
29379;BME280;16362;47.202;15.258;2023-09-19T10:03:40;96072.97;;;22.27;95.61
29379;BME280;16362;47.202;15.258;2023-09-19T10:42:44;96070.44;;;21.59;99.37
29379;BME280;16362;47.202;15.258;2023-09-19T10:49:16;96077.91;;;21.68;100.00
29379;BME280;16362;47.202;15.258;2023-09-19T10:58:38;96080.81;;;21.28;100.00
29379;BME280;16362;47.202;15.258;2023-09-19T12:23:28;96071.91;;;20.98;100.00
29379;BME280;16362;47.202;15.258;2023-09-19T12:33:18;96067.06;;;21.00;100.00
29379;BME280;16362;47.202;15.258;2023-09-19T12:40:06;96072.41;;;21.29;100.00
29379;BME280;16362;47.202;15.258;2023-09-19T12:46:50;96079.97;;;21.44;100.00
29379;BME280;16362;47.202;15.258;2023-09-19T12:53:27;96069.53;;;21.36;100.00
29379;BME280;16362;47.202;15.258;2023-09-19T12:59:52;96069.53;;;21.36;100.00
29379;BME280;16362;47.202;15.258;2023-09-19T13:10:27;96071.34;;;21.13;100.00
29379;BME280;16362;47.202;15.258;2023-09-19T13:17:00;96061.06;;;20.81;100.00
29379;BME280;16362;47.202;15.258;2023-09-19T13:24:21;96054.03;;;20.40;100.00
29379;BME280;16362;47.202;15.258;2023-09-19T13:30:56;96052.22;;;20.28;100.00
29379;BME280;16362;47.202;15.258;2023-09-19T13:37:22;96045.84;;;20.23;100.00
29379;BME280;16362;47.202;15.258;2023-09-19T13:43:11;96047.31;;;20.13;100.00
29379;BME280;16362;47.202;15.258;2023-09-19T13:54:41;96049.25;;;19.77;100.00
29379;BME280;16362;47.202;15.258;2023-09-19T14:01:04;96052.66;;;19.73;100.00
29379;BME280;16362;47.202;15.258;2023-09-19T14:07:29;96061.25;;;19.69;100.00
29379;BME280;16362;47.202;15.258;2023-09-19T14:13:54;96049.25;;;19.65;100.00
29379;BME280;16362;47.202;15.258;2023-09-19T14:20:19;96050.91;;;19.66;100.00
29379;BME280;16362;47.202;15.258;2023-09-19T14:26:46;96045.75;;;19.65;100.00
29379;BME280;16362;47.202;15.258;2023-09-19T14:33:13;96055.28;;;19.56;100.00
29379;BME280;16362;47.202;15.258;2023-09-19T14:39:35;96054.34;;;19.50;100.00
29379;BME280;16362;47.202;15.258;2023-09-19T14:50:46;96065.50;;;19.18;100.00
29379;BME280;16362;47.202;15.258;2023-09-19T14:57:14;96072.78;;;19.06;100.00
29379;BME280;16362;47.202;15.258;2023-09-19T15:03:55;96072.06;;;18.98;100.00
29379;BME280;16362;47.202;15.258;2023-09-19T15:13:09;96082.81;;;18.87;100.00
29379;BME280;16362;47.202;15.258;2023-09-19T15:19:33;96080.94;;;18.87;100.00
29379;BME280;16362;47.202;15.258;2023-09-19T22:20:58;96278.88;;;13.59;100.00
29379;BME280;16362;47.202;15.258;2023-09-19T22:41:23;96291.28;;;13.39;100.00
29379;BME280;16362;47.202;15.258;2023-09-19T22:48:21;96296.56;;;13.32;100.00
29379;BME280;16362;47.202;15.258;2023-09-19T22:58:04;96302.84;;;13.24;100.00
29379;BME280;16362;47.202;15.258;2023-09-19T23:21:33;96306.44;;;13.10;100.00
29379;BME280;16362;47.202;15.258;2023-09-19T23:31:43;96310.59;;;13.12;100.00
29379;BME280;16362;47.202;15.258;2023-09-19T23:38:58;96311.34;;;13.06;100.00
29379;BME280;16362;47.202;15.258;2023-09-19T23:45:24;96316.63;;;13.00;100.00
29379;BME280;16362;47.202;15.258;2023-09-19T23:52:09;96307.50;;;12.94;100.00
29379;BME280;16362;47.202;15.258;2023-09-19T23:59:13;96304.25;;;12.84;100.00
